sensor_id;sensor_type;location;lat;lon;timestamp;temperature;humidity
71237;DHT22;58984;51.960;5.582;2023-03-04T00:02:16;13.10;50.00
71237;DHT22;58984;51.960;5.582;2023-03-04T00:04:42;13.10;50.00
71237;DHT22;58984;51.960;5.582;2023-03-04T00:07:07;13.10;50.00
71237;DHT22;58984;51.960;5.582;2023-03-04T00:09:33;13.10;50.00
71237;DHT22;58984;51.960;5.582;2023-03-04T00:11:58;13.10;50.00
71237;DHT22;58984;51.960;5.582;2023-03-04T00:14:24;13.10;50.00
71237;DHT22;58984;51.960;5.582;2023-03-04T00:16:49;13.10;50.00
71237;DHT22;58984;51.960;5.582;2023-03-04T00:19:15;13.10;50.10
71237;DHT22;58984;51.960;5.582;2023-03-04T00:21:41;13.10;50.00
71237;DHT22;58984;51.960;5.582;2023-03-04T00:24:06;13.10;50.10
71237;DHT22;58984;51.960;5.582;2023-03-04T00:26:32;13.10;50.00
71237;DHT22;58984;51.960;5.582;2023-03-04T00:28:57;13.10;50.20
71237;DHT22;58984;51.960;5.582;2023-03-04T00:31:23;13.10;50.20
71237;DHT22;58984;51.960;5.582;2023-03-04T00:33:48;13.10;50.20
71237;DHT22;58984;51.960;5.582;2023-03-04T00:36:14;13.00;50.10
71237;DHT22;58984;51.960;5.582;2023-03-04T00:38:40;13.00;50.10
71237;DHT22;58984;51.960;5.582;2023-03-04T00:41:05;13.00;50.10
71237;DHT22;58984;51.960;5.582;2023-03-04T00:43:31;13.00;50.20
71237;DHT22;58984;51.960;5.582;2023-03-04T00:45:56;13.10;50.30
71237;DHT22;58984;51.960;5.582;2023-03-04T00:48:22;13.00;50.20
71237;DHT22;58984;51.960;5.582;2023-03-04T00:50:48;13.00;50.20
71237;DHT22;58984;51.960;5.582;2023-03-04T00:53:16;13.00;50.00
71237;DHT22;58984;51.960;5.582;2023-03-04T00:55:41;13.00;50.90
71237;DHT22;58984;51.960;5.582;2023-03-04T00:58:07;13.00;50.30
71237;DHT22;58984;51.960;5.582;2023-03-04T01:00:32;13.00;50.20
71237;DHT22;58984;51.960;5.582;2023-03-04T01:02:58;13.00;50.30
71237;DHT22;58984;51.960;5.582;2023-03-04T01:05:24;13.00;50.30
71237;DHT22;58984;51.960;5.582;2023-03-04T01:07:50;13.00;50.90
71237;DHT22;58984;51.960;5.582;2023-03-04T01:10:15;13.00;50.40
71237;DHT22;58984;51.960;5.582;2023-03-04T01:12:42;13.00;50.40
71237;DHT22;58984;51.960;5.582;2023-03-04T01:15:09;13.00;50.40
71237;DHT22;58984;51.960;5.582;2023-03-04T01:17:35;13.00;50.40
71237;DHT22;58984;51.960;5.582;2023-03-04T01:20:01;13.00;51.00
71237;DHT22;58984;51.960;5.582;2023-03-04T01:22:26;13.00;50.40
71237;DHT22;58984;51.960;5.582;2023-03-04T01:24:52;13.00;50.40
71237;DHT22;58984;51.960;5.582;2023-03-04T01:27:17;13.00;50.40
71237;DHT22;58984;51.960;5.582;2023-03-04T01:29:43;13.00;50.40
71237;DHT22;58984;51.960;5.582;2023-03-04T01:32:09;12.90;50.30
71237;DHT22;58984;51.960;5.582;2023-03-04T01:34:34;13.00;50.40
71237;DHT22;58984;51.960;5.582;2023-03-04T01:37:00;13.00;50.40
71237;DHT22;58984;51.960;5.582;2023-03-04T01:39:26;13.00;50.40
71237;DHT22;58984;51.960;5.582;2023-03-04T01:41:52;12.90;50.40
71237;DHT22;58984;51.960;5.582;2023-03-04T01:44:17;12.90;50.30
71237;DHT22;58984;51.960;5.582;2023-03-04T01:46:47;12.90;50.30
71237;DHT22;58984;51.960;5.582;2023-03-04T01:49:14;12.90;50.40
71237;DHT22;58984;51.960;5.582;2023-03-04T01:51:47;12.90;50.40
71237;DHT22;58984;51.960;5.582;2023-03-04T01:54:14;12.90;50.40
71237;DHT22;58984;51.960;5.582;2023-03-04T01:56:40;12.90;50.40
71237;DHT22;58984;51.960;5.582;2023-03-04T01:59:17;12.90;50.40
71237;DHT22;58984;51.960;5.582;2023-03-04T02:01:46;12.90;50.40
71237;DHT22;58984;51.960;5.582;2023-03-04T02:04:13;12.90;50.50
71237;DHT22;58984;51.960;5.582;2023-03-04T02:06:40;12.90;50.50
71237;DHT22;58984;51.960;5.582;2023-03-04T02:09:06;12.90;50.50
71237;DHT22;58984;51.960;5.582;2023-03-04T02:11:34;12.90;50.50
71237;DHT22;58984;51.960;5.582;2023-03-04T02:14:00;12.80;50.40
71237;DHT22;58984;51.960;5.582;2023-03-04T02:16:26;12.80;50.40
71237;DHT22;58984;51.960;5.582;2023-03-04T02:18:52;12.80;50.40
71237;DHT22;58984;51.960;5.582;2023-03-04T02:21:23;12.80;50.40
71237;DHT22;58984;51.960;5.582;2023-03-04T02:26:34;12.90;50.50
71237;DHT22;58984;51.960;5.582;2023-03-04T02:29:01;12.80;50.40
71237;DHT22;58984;51.960;5.582;2023-03-04T02:31:33;12.80;50.50
71237;DHT22;58984;51.960;5.582;2023-03-04T02:34:01;12.80;50.40
71237;DHT22;58984;51.960;5.582;2023-03-04T02:36:28;12.90;50.40
71237;DHT22;58984;51.960;5.582;2023-03-04T02:38:59;13.00;50.30
71237;DHT22;58984;51.960;5.582;2023-03-04T02:41:27;12.80;50.20
71237;DHT22;58984;51.960;5.582;2023-03-04T02:43:54;12.80;50.30
71237;DHT22;58984;51.960;5.582;2023-03-04T02:46:20;12.80;50.30
71237;DHT22;58984;51.960;5.582;2023-03-04T02:48:46;12.80;50.40
71237;DHT22;58984;51.960;5.582;2023-03-04T02:51:12;12.80;50.30
71237;DHT22;58984;51.960;5.582;2023-03-04T02:53:37;12.80;50.40
71237;DHT22;58984;51.960;5.582;2023-03-04T02:56:03;12.80;50.50
71237;DHT22;58984;51.960;5.582;2023-03-04T02:58:29;12.80;50.50
71237;DHT22;58984;51.960;5.582;2023-03-04T03:00:56;12.80;50.40
71237;DHT22;58984;51.960;5.582;2023-03-04T03:03:21;12.70;50.40
71237;DHT22;58984;51.960;5.582;2023-03-04T03:05:47;12.80;50.50
71237;DHT22;58984;51.960;5.582;2023-03-04T03:08:13;12.70;50.40
71237;DHT22;58984;51.960;5.582;2023-03-04T03:10:38;12.80;50.50
71237;DHT22;58984;51.960;5.582;2023-03-04T03:13:04;12.80;50.50
71237;DHT22;58984;51.960;5.582;2023-03-04T03:15:30;12.80;50.60
71237;DHT22;58984;51.960;5.582;2023-03-04T03:17:56;12.80;50.50
71237;DHT22;58984;51.960;5.582;2023-03-04T03:20:21;12.80;50.60
71237;DHT22;58984;51.960;5.582;2023-03-04T03:22:47;12.80;50.50
71237;DHT22;58984;51.960;5.582;2023-03-04T03:25:14;12.80;50.60
71237;DHT22;58984;51.960;5.582;2023-03-04T03:27:40;12.70;50.40
71237;DHT22;58984;51.960;5.582;2023-03-04T03:30:08;12.80;50.50
71237;DHT22;58984;51.960;5.582;2023-03-04T03:32:33;12.80;50.60
71237;DHT22;58984;51.960;5.582;2023-03-04T03:34:59;12.70;50.50
71237;DHT22;58984;51.960;5.582;2023-03-04T03:37:25;12.70;50.50
71237;DHT22;58984;51.960;5.582;2023-03-04T03:39:51;12.80;50.50
71237;DHT22;58984;51.960;5.582;2023-03-04T03:42:16;12.70;50.40
71237;DHT22;58984;51.960;5.582;2023-03-04T03:44:42;12.70;50.40
71237;DHT22;58984;51.960;5.582;2023-03-04T03:47:07;12.70;50.40
71237;DHT22;58984;51.960;5.582;2023-03-04T03:49:33;12.70;50.40
71237;DHT22;58984;51.960;5.582;2023-03-04T03:51:58;12.70;50.40
71237;DHT22;58984;51.960;5.582;2023-03-04T03:54:24;12.70;50.40
71237;DHT22;58984;51.960;5.582;2023-03-04T03:56:50;12.70;50.40
71237;DHT22;58984;51.960;5.582;2023-03-04T03:59:15;12.70;50.40
71237;DHT22;58984;51.960;5.582;2023-03-04T04:01:41;12.70;50.40
71237;DHT22;58984;51.960;5.582;2023-03-04T04:04:06;12.70;50.40
71237;DHT22;58984;51.960;5.582;2023-03-04T04:06:32;12.70;50.40
71237;DHT22;58984;51.960;5.582;2023-03-04T04:08:58;12.70;50.30
71237;DHT22;58984;51.960;5.582;2023-03-04T04:11:23;12.70;50.30
71237;DHT22;58984;51.960;5.582;2023-03-04T04:13:49;12.70;50.30
71237;DHT22;58984;51.960;5.582;2023-03-04T04:16:14;12.70;50.40
71237;DHT22;58984;51.960;5.582;2023-03-04T04:18:40;12.70;50.40
71237;DHT22;58984;51.960;5.582;2023-03-04T04:21:06;12.70;50.40
71237;DHT22;58984;51.960;5.582;2023-03-04T04:23:31;12.70;50.40
71237;DHT22;58984;51.960;5.582;2023-03-04T04:25:57;12.60;50.40
71237;DHT22;58984;51.960;5.582;2023-03-04T04:28:23;12.60;50.40
71237;DHT22;58984;51.960;5.582;2023-03-04T04:30:49;12.60;50.40
71237;DHT22;58984;51.960;5.582;2023-03-04T04:33:15;12.60;50.40
71237;DHT22;58984;51.960;5.582;2023-03-04T04:35:41;12.60;50.40
71237;DHT22;58984;51.960;5.582;2023-03-04T04:38:07;12.70;50.40
71237;DHT22;58984;51.960;5.582;2023-03-04T04:40:33;12.60;50.40
71237;DHT22;58984;51.960;5.582;2023-03-04T04:42:59;12.70;50.60
71237;DHT22;58984;51.960;5.582;2023-03-04T04:45:24;12.60;50.50
71237;DHT22;58984;51.960;5.582;2023-03-04T04:47:51;12.70;50.60
71237;DHT22;58984;51.960;5.582;2023-03-04T04:50:17;12.60;50.40
71237;DHT22;58984;51.960;5.582;2023-03-04T04:52:42;12.60;50.60
71237;DHT22;58984;51.960;5.582;2023-03-04T04:55:09;12.60;50.50
71237;DHT22;58984;51.960;5.582;2023-03-04T04:57:35;12.60;50.50
71237;DHT22;58984;51.960;5.582;2023-03-04T05:00:01;12.60;50.60
71237;DHT22;58984;51.960;5.582;2023-03-04T05:02:26;12.60;50.60
71237;DHT22;58984;51.960;5.582;2023-03-04T05:04:52;12.60;50.60
71237;DHT22;58984;51.960;5.582;2023-03-04T05:07:18;12.60;50.60
71237;DHT22;58984;51.960;5.582;2023-03-04T05:09:43;12.60;50.40
71237;DHT22;58984;51.960;5.582;2023-03-04T05:12:10;12.60;50.60
71237;DHT22;58984;51.960;5.582;2023-03-04T05:14:35;12.60;50.60
71237;DHT22;58984;51.960;5.582;2023-03-04T05:17:01;12.60;50.50
71237;DHT22;58984;51.960;5.582;2023-03-04T05:19:27;12.60;50.60
71237;DHT22;58984;51.960;5.582;2023-03-04T05:21:52;12.60;50.50
71237;DHT22;58984;51.960;5.582;2023-03-04T05:24:18;12.60;50.60
71237;DHT22;58984;51.960;5.582;2023-03-04T05:26:43;12.60;50.60
71237;DHT22;58984;51.960;5.582;2023-03-04T05:29:09;12.60;50.60
71237;DHT22;58984;51.960;5.582;2023-03-04T05:31:34;12.60;50.70
71237;DHT22;58984;51.960;5.582;2023-03-04T05:34:00;12.60;50.60
71237;DHT22;58984;51.960;5.582;2023-03-04T05:36:26;12.60;50.70
71237;DHT22;58984;51.960;5.582;2023-03-04T05:38:51;12.50;50.60
71237;DHT22;58984;51.960;5.582;2023-03-04T05:41:17;12.50;50.80
71237;DHT22;58984;51.960;5.582;2023-03-04T05:43:47;12.60;50.80
71237;DHT22;58984;51.960;5.582;2023-03-04T05:46:14;12.50;50.60
71237;DHT22;58984;51.960;5.582;2023-03-04T05:48:41;12.50;50.60
71237;DHT22;58984;51.960;5.582;2023-03-04T05:51:06;12.50;50.80
71237;DHT22;58984;51.960;5.582;2023-03-04T05:53:32;12.50;50.80
71237;DHT22;58984;51.960;5.582;2023-03-04T05:55:58;12.50;50.80
71237;DHT22;58984;51.960;5.582;2023-03-04T05:58:24;12.60;51.50
71237;DHT22;58984;51.960;5.582;2023-03-04T06:00:50;12.50;50.70
71237;DHT22;58984;51.960;5.582;2023-03-04T06:03:20;12.50;50.80
71237;DHT22;58984;51.960;5.582;2023-03-04T06:05:47;12.50;50.80
71237;DHT22;58984;51.960;5.582;2023-03-04T06:08:13;12.60;50.90
71237;DHT22;58984;51.960;5.582;2023-03-04T06:10:39;12.50;50.80
71237;DHT22;58984;51.960;5.582;2023-03-04T06:13:06;12.50;50.90
71237;DHT22;58984;51.960;5.582;2023-03-04T06:15:31;12.50;50.90
71237;DHT22;58984;51.960;5.582;2023-03-04T06:17:57;12.50;50.80
71237;DHT22;58984;51.960;5.582;2023-03-04T06:20:23;12.50;50.90
71237;DHT22;58984;51.960;5.582;2023-03-04T06:22:48;12.50;50.90
71237;DHT22;58984;51.960;5.582;2023-03-04T06:25:14;12.50;51.00
71237;DHT22;58984;51.960;5.582;2023-03-04T06:27:40;12.50;50.90
71237;DHT22;58984;51.960;5.582;2023-03-04T06:30:06;12.50;50.90
71237;DHT22;58984;51.960;5.582;2023-03-04T06:32:32;12.50;51.00
71237;DHT22;58984;51.960;5.582;2023-03-04T06:34:58;12.50;50.90
71237;DHT22;58984;51.960;5.582;2023-03-04T06:37:23;12.50;51.00
71237;DHT22;58984;51.960;5.582;2023-03-04T06:39:49;12.50;51.00
71237;DHT22;58984;51.960;5.582;2023-03-04T06:42:15;12.40;51.00
71237;DHT22;58984;51.960;5.582;2023-03-04T06:44:40;12.50;51.10
71237;DHT22;58984;51.960;5.582;2023-03-04T06:47:06;12.50;51.00
71237;DHT22;58984;51.960;5.582;2023-03-04T06:49:32;12.50;51.00
71237;DHT22;58984;51.960;5.582;2023-03-04T06:51:58;12.50;51.00
71237;DHT22;58984;51.960;5.582;2023-03-04T06:54:23;12.50;51.00
71237;DHT22;58984;51.960;5.582;2023-03-04T06:56:49;12.40;51.00
71237;DHT22;58984;51.960;5.582;2023-03-04T06:59:15;12.40;51.10
71237;DHT22;58984;51.960;5.582;2023-03-04T07:01:40;12.40;51.10
71237;DHT22;58984;51.960;5.582;2023-03-04T07:04:06;12.40;51.80
71237;DHT22;58984;51.960;5.582;2023-03-04T07:06:32;12.40;51.10
71237;DHT22;58984;51.960;5.582;2023-03-04T07:08:58;12.40;51.10
71237;DHT22;58984;51.960;5.582;2023-03-04T07:11:24;12.40;51.20
71237;DHT22;58984;51.960;5.582;2023-03-04T07:13:50;12.40;51.30
71237;DHT22;58984;51.960;5.582;2023-03-04T07:16:19;12.40;51.30
71237;DHT22;58984;51.960;5.582;2023-03-04T07:18:45;12.40;51.50
71237;DHT22;58984;51.960;5.582;2023-03-04T07:21:12;12.40;51.50
71237;DHT22;58984;51.960;5.582;2023-03-04T07:23:39;12.40;51.50
71237;DHT22;58984;51.960;5.582;2023-03-04T07:26:05;12.40;51.60
71237;DHT22;58984;51.960;5.582;2023-03-04T07:28:31;12.40;51.70
71237;DHT22;58984;51.960;5.582;2023-03-04T07:30:56;12.40;51.80
71237;DHT22;58984;51.960;5.582;2023-03-04T07:33:31;12.40;51.80
71237;DHT22;58984;51.960;5.582;2023-03-04T07:35:58;12.40;52.30
71237;DHT22;58984;51.960;5.582;2023-03-04T07:38:24;12.40;51.70
71237;DHT22;58984;51.960;5.582;2023-03-04T07:40:57;12.40;51.80
71237;DHT22;58984;51.960;5.582;2023-03-04T07:43:22;12.40;51.70
71237;DHT22;58984;51.960;5.582;2023-03-04T07:45:48;12.40;51.70
71237;DHT22;58984;51.960;5.582;2023-03-04T07:48:13;12.40;51.70
71237;DHT22;58984;51.960;5.582;2023-03-04T07:50:39;12.40;51.70
71237;DHT22;58984;51.960;5.582;2023-03-04T07:53:05;12.40;51.80
71237;DHT22;58984;51.960;5.582;2023-03-04T07:55:30;12.40;51.80
71237;DHT22;58984;51.960;5.582;2023-03-04T07:57:56;12.40;51.80
71237;DHT22;58984;51.960;5.582;2023-03-04T08:00:22;12.40;51.70
71237;DHT22;58984;51.960;5.582;2023-03-04T08:02:48;12.40;51.70
71237;DHT22;58984;51.960;5.582;2023-03-04T08:05:14;12.40;51.80
71237;DHT22;58984;51.960;5.582;2023-03-04T08:07:40;12.50;51.90
71237;DHT22;58984;51.960;5.582;2023-03-04T08:10:06;12.50;51.90
71237;DHT22;58984;51.960;5.582;2023-03-04T08:12:33;12.50;52.00
71237;DHT22;58984;51.960;5.582;2023-03-04T08:14:59;12.50;51.60
71237;DHT22;58984;51.960;5.582;2023-03-04T08:17:25;12.50;52.10
71237;DHT22;58984;51.960;5.582;2023-03-04T08:19:50;12.50;52.20
71237;DHT22;58984;51.960;5.582;2023-03-04T08:22:16;12.50;52.30
71237;DHT22;58984;51.960;5.582;2023-03-04T08:24:41;12.50;52.30
71237;DHT22;58984;51.960;5.582;2023-03-04T08:27:07;12.50;52.40
71237;DHT22;58984;51.960;5.582;2023-03-04T08:29:33;12.50;52.50
71237;DHT22;58984;51.960;5.582;2023-03-04T08:31:59;12.50;52.60
71237;DHT22;58984;51.960;5.582;2023-03-04T08:34:26;12.50;52.70
71237;DHT22;58984;51.960;5.582;2023-03-04T08:36:52;12.50;52.70
71237;DHT22;58984;51.960;5.582;2023-03-04T08:39:19;12.50;52.80
71237;DHT22;58984;51.960;5.582;2023-03-04T08:41:45;12.50;52.80
71237;DHT22;58984;51.960;5.582;2023-03-04T08:44:11;12.60;52.90
71237;DHT22;58984;51.960;5.582;2023-03-04T08:46:39;12.50;52.90
71237;DHT22;58984;51.960;5.582;2023-03-04T08:49:05;12.60;53.00
71237;DHT22;58984;51.960;5.582;2023-03-04T08:51:31;12.60;53.10
71237;DHT22;58984;51.960;5.582;2023-03-04T08:53:57;12.60;53.10
71237;DHT22;58984;51.960;5.582;2023-03-04T08:56:23;12.60;53.10
71237;DHT22;58984;51.960;5.582;2023-03-04T08:58:48;12.60;53.20
71237;DHT22;58984;51.960;5.582;2023-03-04T09:01:14;12.70;53.30
71237;DHT22;58984;51.960;5.582;2023-03-04T09:03:40;12.60;53.30
71237;DHT22;58984;51.960;5.582;2023-03-04T09:06:07;12.60;53.40
71237;DHT22;58984;51.960;5.582;2023-03-04T09:08:33;12.70;53.50
71237;DHT22;58984;51.960;5.582;2023-03-04T09:10:59;12.70;53.50
71237;DHT22;58984;51.960;5.582;2023-03-04T09:13:28;12.70;53.60
71237;DHT22;58984;51.960;5.582;2023-03-04T09:15:54;12.70;53.60
71237;DHT22;58984;51.960;5.582;2023-03-04T09:18:21;12.70;53.60
71237;DHT22;58984;51.960;5.582;2023-03-04T09:20:47;12.70;53.80
71237;DHT22;58984;51.960;5.582;2023-03-04T09:23:13;12.70;53.80
71237;DHT22;58984;51.960;5.582;2023-03-04T09:25:40;12.80;53.90
71237;DHT22;58984;51.960;5.582;2023-03-04T09:28:06;12.80;53.90
71237;DHT22;58984;51.960;5.582;2023-03-04T09:30:33;12.80;53.90
71237;DHT22;58984;51.960;5.582;2023-03-04T09:32:59;12.80;54.00
71237;DHT22;58984;51.960;5.582;2023-03-04T09:35:25;12.80;54.10
71237;DHT22;58984;51.960;5.582;2023-03-04T09:37:50;12.80;54.20
71237;DHT22;58984;51.960;5.582;2023-03-04T09:40:23;12.90;54.20
71237;DHT22;58984;51.960;5.582;2023-03-04T09:42:54;12.80;54.20
71237;DHT22;58984;51.960;5.582;2023-03-04T09:45:24;12.90;54.30
71237;DHT22;58984;51.960;5.582;2023-03-04T09:47:52;12.90;54.30
71237;DHT22;58984;51.960;5.582;2023-03-04T09:50:19;12.90;54.30
71237;DHT22;58984;51.960;5.582;2023-03-04T09:55:39;12.90;54.30
71237;DHT22;58984;51.960;5.582;2023-03-04T09:58:25;12.90;54.30
71237;DHT22;58984;51.960;5.582;2023-03-04T10:01:02;13.00;54.30
71237;DHT22;58984;51.960;5.582;2023-03-04T10:03:52;12.90;54.30
71237;DHT22;58984;51.960;5.582;2023-03-04T10:06:22;13.00;53.80
71237;DHT22;58984;51.960;5.582;2023-03-04T10:09:10;13.00;54.30
71237;DHT22;58984;51.960;5.582;2023-03-04T10:11:44;13.00;54.50
71237;DHT22;58984;51.960;5.582;2023-03-04T10:24:47;13.10;54.50
71237;DHT22;58984;51.960;5.582;2023-03-04T10:27:16;13.20;54.50
71237;DHT22;58984;51.960;5.582;2023-03-04T10:29:43;13.20;54.60
71237;DHT22;58984;51.960;5.582;2023-03-04T10:32:18;13.20;54.50
71237;DHT22;58984;51.960;5.582;2023-03-04T10:34:44;13.30;54.70
71237;DHT22;58984;51.960;5.582;2023-03-04T10:37:10;13.30;54.60
71237;DHT22;58984;51.960;5.582;2023-03-04T10:44:42;13.30;54.70
71237;DHT22;58984;51.960;5.582;2023-03-04T10:47:09;13.30;54.60
71237;DHT22;58984;51.960;5.582;2023-03-04T10:49:52;13.40;54.70
71237;DHT22;58984;51.960;5.582;2023-03-04T10:55:59;13.50;54.60
71237;DHT22;58984;51.960;5.582;2023-03-04T10:58:04;13.50;54.50
71237;DHT22;58984;51.960;5.582;2023-03-04T11:00:35;13.50;54.50
71237;DHT22;58984;51.960;5.582;2023-03-04T11:05:45;13.50;54.70
71237;DHT22;58984;51.960;5.582;2023-03-04T11:08:20;13.50;54.70
71237;DHT22;58984;51.960;5.582;2023-03-04T11:10:46;13.40;54.70
71237;DHT22;58984;51.960;5.582;2023-03-04T11:13:18;13.50;54.80
71237;DHT22;58984;51.960;5.582;2023-03-04T11:18:33;13.50;54.80
71237;DHT22;58984;51.960;5.582;2023-03-04T11:21:04;13.50;54.80
71237;DHT22;58984;51.960;5.582;2023-03-04T11:23:35;13.60;54.80
71237;DHT22;58984;51.960;5.582;2023-03-04T11:26:08;13.60;54.80
71237;DHT22;58984;51.960;5.582;2023-03-04T11:28:57;13.60;54.80
71237;DHT22;58984;51.960;5.582;2023-03-04T11:31:33;13.60;54.80
71237;DHT22;58984;51.960;5.582;2023-03-04T11:34:07;13.60;54.90
71237;DHT22;58984;51.960;5.582;2023-03-04T11:37:02;13.70;54.90
71237;DHT22;58984;51.960;5.582;2023-03-04T11:39:46;13.70;54.90
71237;DHT22;58984;51.960;5.582;2023-03-04T11:45:16;13.70;54.90
71237;DHT22;58984;51.960;5.582;2023-03-04T11:48:10;13.70;55.00
71237;DHT22;58984;51.960;5.582;2023-03-04T11:56:25;13.80;55.00
71237;DHT22;58984;51.960;5.582;2023-03-04T12:01:54;13.80;55.00
71237;DHT22;58984;51.960;5.582;2023-03-04T12:10:27;13.80;55.20
71237;DHT22;58984;51.960;5.582;2023-03-04T12:16:10;13.80;55.20
71237;DHT22;58984;51.960;5.582;2023-03-04T12:21:44;13.90;55.40
71237;DHT22;58984;51.960;5.582;2023-03-04T12:24:17;13.90;55.40
71237;DHT22;58984;51.960;5.582;2023-03-04T12:27:00;14.00;55.40
71237;DHT22;58984;51.960;5.582;2023-03-04T12:35:34;14.00;55.40
71237;DHT22;58984;51.960;5.582;2023-03-04T12:48:35;14.20;55.50
71237;DHT22;58984;51.960;5.582;2023-03-04T12:56:26;14.30;55.20
71237;DHT22;58984;51.960;5.582;2023-03-04T12:58:53;14.30;55.20
71237;DHT22;58984;51.960;5.582;2023-03-04T13:01:38;14.40;55.20
71237;DHT22;58984;51.960;5.582;2023-03-04T13:07:13;14.40;55.20
71237;DHT22;58984;51.960;5.582;2023-03-04T13:10:24;14.50;55.20
71237;DHT22;58984;51.960;5.582;2023-03-04T13:12:58;14.40;55.10
71237;DHT22;58984;51.960;5.582;2023-03-04T13:17:54;14.50;55.00
71237;DHT22;58984;51.960;5.582;2023-03-04T13:32:56;14.60;55.00
71237;DHT22;58984;51.960;5.582;2023-03-04T13:51:42;14.70;54.60
71237;DHT22;58984;51.960;5.582;2023-03-04T13:57:10;14.70;54.50
71237;DHT22;58984;51.960;5.582;2023-03-04T13:59:38;14.70;54.50
71237;DHT22;58984;51.960;5.582;2023-03-04T14:05:00;14.70;54.50
71237;DHT22;58984;51.960;5.582;2023-03-04T14:07:34;14.70;54.60
71237;DHT22;58984;51.960;5.582;2023-03-04T14:12:47;14.70;54.50
71237;DHT22;58984;51.960;5.582;2023-03-04T14:17:44;14.70;54.50
71237;DHT22;58984;51.960;5.582;2023-03-04T14:20:29;14.70;54.50
71237;DHT22;58984;51.960;5.582;2023-03-04T14:22:56;14.70;54.70
71237;DHT22;58984;51.960;5.582;2023-03-04T14:25:30;14.70;54.50
71237;DHT22;58984;51.960;5.582;2023-03-04T14:28:14;14.60;54.60
71237;DHT22;58984;51.960;5.582;2023-03-04T14:30:50;14.60;54.50
71237;DHT22;58984;51.960;5.582;2023-03-04T14:33:28;14.60;54.40
71237;DHT22;58984;51.960;5.582;2023-03-04T14:35:57;14.60;54.40
71237;DHT22;58984;51.960;5.582;2023-03-04T14:38:28;14.70;54.50
71237;DHT22;58984;51.960;5.582;2023-03-04T14:43:23;14.70;54.50
71237;DHT22;58984;51.960;5.582;2023-03-04T14:45:51;14.60;54.30
71237;DHT22;58984;51.960;5.582;2023-03-04T14:48:24;14.70;54.20
71237;DHT22;58984;51.960;5.582;2023-03-04T14:50:52;14.70;54.20
71237;DHT22;58984;51.960;5.582;2023-03-04T14:53:20;14.60;53.70
71237;DHT22;58984;51.960;5.582;2023-03-04T14:58:29;14.50;53.50
71237;DHT22;58984;51.960;5.582;2023-03-04T15:03:32;14.50;53.50
71237;DHT22;58984;51.960;5.582;2023-03-04T15:06:21;14.60;53.70
71237;DHT22;58984;51.960;5.582;2023-03-04T15:08:56;14.50;53.50
71237;DHT22;58984;51.960;5.582;2023-03-04T15:11:28;14.50;53.40
71237;DHT22;58984;51.960;5.582;2023-03-04T15:13:56;14.50;53.40
71237;DHT22;58984;51.960;5.582;2023-03-04T15:16:26;14.50;53.40
71237;DHT22;58984;51.960;5.582;2023-03-04T15:19:05;14.50;53.40
71237;DHT22;58984;51.960;5.582;2023-03-04T15:21:47;14.40;53.40
71237;DHT22;58984;51.960;5.582;2023-03-04T15:24:13;14.50;53.40
71237;DHT22;58984;51.960;5.582;2023-03-04T15:26:42;14.50;53.50
71237;DHT22;58984;51.960;5.582;2023-03-04T15:29:17;14.50;53.40
71237;DHT22;58984;51.960;5.582;2023-03-04T15:31:43;14.40;53.40
71237;DHT22;58984;51.960;5.582;2023-03-04T15:34:12;14.40;53.40
71237;DHT22;58984;51.960;5.582;2023-03-04T15:36:38;14.40;53.40
71237;DHT22;58984;51.960;5.582;2023-03-04T15:39:04;14.40;53.40
71237;DHT22;58984;51.960;5.582;2023-03-04T15:41:30;14.50;53.50
71237;DHT22;58984;51.960;5.582;2023-03-04T15:43:55;14.40;53.40
71237;DHT22;58984;51.960;5.582;2023-03-04T15:46:21;14.40;53.40
71237;DHT22;58984;51.960;5.582;2023-03-04T15:48:47;14.50;53.40
71237;DHT22;58984;51.960;5.582;2023-03-04T15:51:19;14.40;53.40
71237;DHT22;58984;51.960;5.582;2023-03-04T15:56:17;14.40;53.40
71237;DHT22;58984;51.960;5.582;2023-03-04T15:58:43;14.40;53.40
71237;DHT22;58984;51.960;5.582;2023-03-04T16:01:14;14.40;53.40
71237;DHT22;58984;51.960;5.582;2023-03-04T16:03:40;14.40;53.40
71237;DHT22;58984;51.960;5.582;2023-03-04T16:06:09;14.40;53.40
71237;DHT22;58984;51.960;5.582;2023-03-04T16:08:37;14.40;53.40
71237;DHT22;58984;51.960;5.582;2023-03-04T16:11:03;14.40;53.40
71237;DHT22;58984;51.960;5.582;2023-03-04T16:13:29;14.40;53.40
71237;DHT22;58984;51.960;5.582;2023-03-04T16:15:54;14.40;53.40
71237;DHT22;58984;51.960;5.582;2023-03-04T16:18:20;14.40;53.40
71237;DHT22;58984;51.960;5.582;2023-03-04T16:20:47;14.30;53.30
71237;DHT22;58984;51.960;5.582;2023-03-04T16:23:17;14.30;53.30
71237;DHT22;58984;51.960;5.582;2023-03-04T16:25:44;14.30;53.00
71237;DHT22;58984;51.960;5.582;2023-03-04T16:28:11;14.30;53.30
71237;DHT22;58984;51.960;5.582;2023-03-04T16:30:37;14.30;53.20
71237;DHT22;58984;51.960;5.582;2023-03-04T16:33:03;14.30;53.10
71237;DHT22;58984;51.960;5.582;2023-03-04T16:35:28;14.30;53.00
71237;DHT22;58984;51.960;5.582;2023-03-04T16:37:54;14.20;52.80
71237;DHT22;58984;51.960;5.582;2023-03-04T16:40:24;14.20;52.70
71237;DHT22;58984;51.960;5.582;2023-03-04T16:42:50;14.20;52.60
71237;DHT22;58984;51.960;5.582;2023-03-04T16:45:19;14.20;52.60
71237;DHT22;58984;51.960;5.582;2023-03-04T16:47:45;14.20;52.60
71237;DHT22;58984;51.960;5.582;2023-03-04T16:50:22;14.20;52.70
71237;DHT22;58984;51.960;5.582;2023-03-04T16:52:53;14.20;52.70
71237;DHT22;58984;51.960;5.582;2023-03-04T16:57:48;14.10;52.50
71237;DHT22;58984;51.960;5.582;2023-03-04T17:00:15;14.20;52.60
71237;DHT22;58984;51.960;5.582;2023-03-04T17:02:42;14.10;52.60
71237;DHT22;58984;51.960;5.582;2023-03-04T17:05:17;14.10;52.50
71237;DHT22;58984;51.960;5.582;2023-03-04T17:07:43;14.10;52.20
71237;DHT22;58984;51.960;5.582;2023-03-04T17:10:09;14.10;51.90
71237;DHT22;58984;51.960;5.582;2023-03-04T17:12:35;14.10;52.00
71237;DHT22;58984;51.960;5.582;2023-03-04T17:15:01;14.10;51.80
71237;DHT22;58984;51.960;5.582;2023-03-04T17:17:29;14.10;51.50
71237;DHT22;58984;51.960;5.582;2023-03-04T17:19:55;14.10;51.30
71237;DHT22;58984;51.960;5.582;2023-03-04T17:22:21;14.00;51.30
71237;DHT22;58984;51.960;5.582;2023-03-04T17:24:48;14.00;51.20
71237;DHT22;58984;51.960;5.582;2023-03-04T17:27:13;14.00;51.20
71237;DHT22;58984;51.960;5.582;2023-03-04T17:29:39;14.00;51.20
71237;DHT22;58984;51.960;5.582;2023-03-04T17:32:05;14.00;51.30
71237;DHT22;58984;51.960;5.582;2023-03-04T17:34:31;14.00;51.40
71237;DHT22;58984;51.960;5.582;2023-03-04T17:36:57;14.00;51.40
71237;DHT22;58984;51.960;5.582;2023-03-04T17:39:23;14.00;51.40
71237;DHT22;58984;51.960;5.582;2023-03-04T17:41:49;14.00;51.30
71237;DHT22;58984;51.960;5.582;2023-03-04T17:44:15;13.90;51.30
71237;DHT22;58984;51.960;5.582;2023-03-04T17:46:41;13.90;51.30
71237;DHT22;58984;51.960;5.582;2023-03-04T17:49:09;13.90;51.30